sensor_id;sensor_type;location;lat;lon;timestamp;temperature;humidity
21502;DHT22;27639;48.674;9.242;2024-02-16T00:00:26;13.30;56.50
21502;DHT22;27639;48.674;9.242;2024-02-16T00:02:52;13.40;56.60
21502;DHT22;27639;48.674;9.242;2024-02-16T00:05:18;13.40;56.40
21502;DHT22;27639;48.674;9.242;2024-02-16T00:07:43;13.50;56.50
21502;DHT22;27639;48.674;9.242;2024-02-16T00:10:10;13.40;56.40
21502;DHT22;27639;48.674;9.242;2024-02-16T00:12:36;13.40;56.50
21502;DHT22;27639;48.674;9.242;2024-02-16T00:15:02;13.40;56.60
21502;DHT22;27639;48.674;9.242;2024-02-16T00:17:28;13.40;56.60
21502;DHT22;27639;48.674;9.242;2024-02-16T00:19:57;13.40;56.60
21502;DHT22;27639;48.674;9.242;2024-02-16T00:22:23;13.40;56.70
21502;DHT22;27639;48.674;9.242;2024-02-16T00:24:49;13.40;57.30
21502;DHT22;27639;48.674;9.242;2024-02-16T00:27:15;13.40;56.70
21502;DHT22;27639;48.674;9.242;2024-02-16T00:29:41;13.30;56.60
21502;DHT22;27639;48.674;9.242;2024-02-16T00:32:07;13.40;56.60
21502;DHT22;27639;48.674;9.242;2024-02-16T00:34:33;13.40;56.60
21502;DHT22;27639;48.674;9.242;2024-02-16T00:36:59;13.40;56.60
21502;DHT22;27639;48.674;9.242;2024-02-16T00:39:25;13.40;56.60
21502;DHT22;27639;48.674;9.242;2024-02-16T00:41:51;13.40;56.60
21502;DHT22;27639;48.674;9.242;2024-02-16T00:44:17;13.40;56.60
21502;DHT22;27639;48.674;9.242;2024-02-16T00:46:43;13.40;56.60
21502;DHT22;27639;48.674;9.242;2024-02-16T00:49:09;13.40;56.60
21502;DHT22;27639;48.674;9.242;2024-02-16T00:51:36;13.40;56.60
21502;DHT22;27639;48.674;9.242;2024-02-16T00:54:02;13.40;56.60
21502;DHT22;27639;48.674;9.242;2024-02-16T00:56:29;13.40;56.80
21502;DHT22;27639;48.674;9.242;2024-02-16T00:58:55;13.30;56.80
21502;DHT22;27639;48.674;9.242;2024-02-16T01:01:20;13.30;56.80
21502;DHT22;27639;48.674;9.242;2024-02-16T01:03:48;13.30;56.80
21502;DHT22;27639;48.674;9.242;2024-02-16T01:06:14;13.30;56.90
21502;DHT22;27639;48.674;9.242;2024-02-16T01:08:40;13.20;56.90
21502;DHT22;27639;48.674;9.242;2024-02-16T01:11:05;13.20;57.10
21502;DHT22;27639;48.674;9.242;2024-02-16T01:13:31;13.20;57.20
21502;DHT22;27639;48.674;9.242;2024-02-16T01:15:58;13.30;57.20
21502;DHT22;27639;48.674;9.242;2024-02-16T01:18:23;13.30;57.10
21502;DHT22;27639;48.674;9.242;2024-02-16T01:20:49;13.40;57.10
21502;DHT22;27639;48.674;9.242;2024-02-16T01:23:15;13.40;57.10
21502;DHT22;27639;48.674;9.242;2024-02-16T01:25:40;13.40;57.00
21502;DHT22;27639;48.674;9.242;2024-02-16T01:28:06;13.40;56.90
21502;DHT22;27639;48.674;9.242;2024-02-16T01:30:31;13.40;56.90
21502;DHT22;27639;48.674;9.242;2024-02-16T01:32:57;13.40;57.00
21502;DHT22;27639;48.674;9.242;2024-02-16T01:35:23;13.40;57.10
21502;DHT22;27639;48.674;9.242;2024-02-16T01:37:48;13.50;57.10
21502;DHT22;27639;48.674;9.242;2024-02-16T01:40:14;13.50;57.00
21502;DHT22;27639;48.674;9.242;2024-02-16T01:42:46;13.40;56.90
21502;DHT22;27639;48.674;9.242;2024-02-16T01:45:13;13.40;57.00
21502;DHT22;27639;48.674;9.242;2024-02-16T01:47:39;13.40;57.10
21502;DHT22;27639;48.674;9.242;2024-02-16T01:50:08;13.40;57.10
21502;DHT22;27639;48.674;9.242;2024-02-16T01:52:34;13.40;57.10
21502;DHT22;27639;48.674;9.242;2024-02-16T01:55:05;13.40;57.20
21502;DHT22;27639;48.674;9.242;2024-02-16T01:57:34;13.30;57.10
21502;DHT22;27639;48.674;9.242;2024-02-16T01:59:59;13.30;57.20
21502;DHT22;27639;48.674;9.242;2024-02-16T02:02:27;13.40;57.30
21502;DHT22;27639;48.674;9.242;2024-02-16T02:04:52;13.30;57.20
21502;DHT22;27639;48.674;9.242;2024-02-16T02:07:18;13.30;57.40
21502;DHT22;27639;48.674;9.242;2024-02-16T02:09:44;13.30;57.50
21502;DHT22;27639;48.674;9.242;2024-02-16T02:12:10;13.30;57.60
21502;DHT22;27639;48.674;9.242;2024-02-16T02:14:36;13.30;57.50
21502;DHT22;27639;48.674;9.242;2024-02-16T02:17:04;13.30;57.50
21502;DHT22;27639;48.674;9.242;2024-02-16T02:19:30;13.30;57.50
21502;DHT22;27639;48.674;9.242;2024-02-16T02:21:56;13.30;57.50
21502;DHT22;27639;48.674;9.242;2024-02-16T02:24:22;13.30;57.50
21502;DHT22;27639;48.674;9.242;2024-02-16T02:26:48;13.30;57.50
21502;DHT22;27639;48.674;9.242;2024-02-16T02:29:13;13.30;57.50
21502;DHT22;27639;48.674;9.242;2024-02-16T02:31:39;13.40;57.60
21502;DHT22;27639;48.674;9.242;2024-02-16T02:34:05;13.30;57.70
21502;DHT22;27639;48.674;9.242;2024-02-16T02:36:31;13.40;57.80
21502;DHT22;27639;48.674;9.242;2024-02-16T02:38:58;13.30;57.80
21502;DHT22;27639;48.674;9.242;2024-02-16T02:41:23;13.30;57.90
21502;DHT22;27639;48.674;9.242;2024-02-16T02:43:49;13.30;57.70
21502;DHT22;27639;48.674;9.242;2024-02-16T02:46:16;13.30;57.70
21502;DHT22;27639;48.674;9.242;2024-02-16T02:48:45;13.40;57.80
21502;DHT22;27639;48.674;9.242;2024-02-16T02:51:11;13.30;57.70
21502;DHT22;27639;48.674;9.242;2024-02-16T02:53:37;13.40;57.70
21502;DHT22;27639;48.674;9.242;2024-02-16T02:56:03;13.40;57.60
21502;DHT22;27639;48.674;9.242;2024-02-16T02:58:29;13.40;57.70
21502;DHT22;27639;48.674;9.242;2024-02-16T03:00:55;13.40;57.80
21502;DHT22;27639;48.674;9.242;2024-02-16T03:03:21;13.30;58.10
21502;DHT22;27639;48.674;9.242;2024-02-16T03:05:47;13.30;57.80
21502;DHT22;27639;48.674;9.242;2024-02-16T03:08:13;13.20;57.70
21502;DHT22;27639;48.674;9.242;2024-02-16T03:10:40;13.30;57.80
21502;DHT22;27639;48.674;9.242;2024-02-16T03:13:05;13.30;57.70
21502;DHT22;27639;48.674;9.242;2024-02-16T03:15:34;13.30;57.70
21502;DHT22;27639;48.674;9.242;2024-02-16T03:18:01;13.30;57.70
21502;DHT22;27639;48.674;9.242;2024-02-16T03:20:27;13.30;57.80
21502;DHT22;27639;48.674;9.242;2024-02-16T03:22:52;13.30;57.70
21502;DHT22;27639;48.674;9.242;2024-02-16T03:25:18;13.30;57.70
21502;DHT22;27639;48.674;9.242;2024-02-16T03:27:44;13.30;57.70
21502;DHT22;27639;48.674;9.242;2024-02-16T03:30:10;13.30;57.80
21502;DHT22;27639;48.674;9.242;2024-02-16T03:32:36;13.20;57.90
21502;DHT22;27639;48.674;9.242;2024-02-16T03:35:01;13.20;58.00
21502;DHT22;27639;48.674;9.242;2024-02-16T03:37:27;13.20;58.00
21502;DHT22;27639;48.674;9.242;2024-02-16T03:39:53;13.20;58.00
21502;DHT22;27639;48.674;9.242;2024-02-16T03:42:21;13.20;58.60
21502;DHT22;27639;48.674;9.242;2024-02-16T03:44:50;13.20;58.10
21502;DHT22;27639;48.674;9.242;2024-02-16T03:47:16;13.10;58.20
21502;DHT22;27639;48.674;9.242;2024-02-16T03:49:42;13.10;58.20
21502;DHT22;27639;48.674;9.242;2024-02-16T03:52:08;13.00;58.30
21502;DHT22;27639;48.674;9.242;2024-02-16T03:54:34;13.10;58.40
21502;DHT22;27639;48.674;9.242;2024-02-16T03:56:59;13.10;58.40
21502;DHT22;27639;48.674;9.242;2024-02-16T03:59:25;13.20;58.40
21502;DHT22;27639;48.674;9.242;2024-02-16T04:01:51;13.20;58.30
21502;DHT22;27639;48.674;9.242;2024-02-16T04:04:17;13.20;58.30
21502;DHT22;27639;48.674;9.242;2024-02-16T04:06:43;13.20;58.30
21502;DHT22;27639;48.674;9.242;2024-02-16T04:09:09;13.20;58.30
21502;DHT22;27639;48.674;9.242;2024-02-16T04:11:34;13.20;58.30
21502;DHT22;27639;48.674;9.242;2024-02-16T04:14:01;13.20;58.40
21502;DHT22;27639;48.674;9.242;2024-02-16T04:16:27;13.10;58.20
21502;DHT22;27639;48.674;9.242;2024-02-16T04:18:53;13.20;58.30
21502;DHT22;27639;48.674;9.242;2024-02-16T04:21:19;13.20;58.30
21502;DHT22;27639;48.674;9.242;2024-02-16T04:23:46;13.10;58.20
21502;DHT22;27639;48.674;9.242;2024-02-16T04:26:12;13.20;58.30
21502;DHT22;27639;48.674;9.242;2024-02-16T04:28:37;13.10;58.20
21502;DHT22;27639;48.674;9.242;2024-02-16T04:31:03;13.10;58.30
21502;DHT22;27639;48.674;9.242;2024-02-16T04:33:28;13.10;58.30
21502;DHT22;27639;48.674;9.242;2024-02-16T04:35:54;13.10;58.40
21502;DHT22;27639;48.674;9.242;2024-02-16T04:38:20;13.10;58.50
21502;DHT22;27639;48.674;9.242;2024-02-16T04:40:45;13.00;58.50
21502;DHT22;27639;48.674;9.242;2024-02-16T04:43:11;13.00;58.50
21502;DHT22;27639;48.674;9.242;2024-02-16T04:45:37;13.00;58.50
21502;DHT22;27639;48.674;9.242;2024-02-16T04:48:06;13.00;58.60
21502;DHT22;27639;48.674;9.242;2024-02-16T04:50:32;13.00;58.50
21502;DHT22;27639;48.674;9.242;2024-02-16T04:52:58;13.00;58.50
21502;DHT22;27639;48.674;9.242;2024-02-16T04:55:24;13.00;58.60
21502;DHT22;27639;48.674;9.242;2024-02-16T04:57:49;13.00;58.50
21502;DHT22;27639;48.674;9.242;2024-02-16T05:00:15;13.00;58.60
21502;DHT22;27639;48.674;9.242;2024-02-16T05:02:41;13.00;58.60
21502;DHT22;27639;48.674;9.242;2024-02-16T05:05:06;13.00;58.60
21502;DHT22;27639;48.674;9.242;2024-02-16T05:07:32;13.10;58.60
21502;DHT22;27639;48.674;9.242;2024-02-16T05:09:58;13.10;58.70
21502;DHT22;27639;48.674;9.242;2024-02-16T05:12:24;13.00;58.70
21502;DHT22;27639;48.674;9.242;2024-02-16T05:14:51;13.00;58.60
21502;DHT22;27639;48.674;9.242;2024-02-16T05:17:17;13.00;58.60
21502;DHT22;27639;48.674;9.242;2024-02-16T05:19:43;13.00;58.60
21502;DHT22;27639;48.674;9.242;2024-02-16T05:22:09;13.00;58.60
21502;DHT22;27639;48.674;9.242;2024-02-16T05:24:35;13.00;58.60
21502;DHT22;27639;48.674;9.242;2024-02-16T05:27:01;13.00;58.70
21502;DHT22;27639;48.674;9.242;2024-02-16T05:29:26;13.00;58.70
21502;DHT22;27639;48.674;9.242;2024-02-16T05:31:52;13.00;58.60
21502;DHT22;27639;48.674;9.242;2024-02-16T05:34:18;13.00;58.60
21502;DHT22;27639;48.674;9.242;2024-02-16T05:36:44;13.00;58.60
21502;DHT22;27639;48.674;9.242;2024-02-16T05:39:10;12.90;58.60
21502;DHT22;27639;48.674;9.242;2024-02-16T05:41:46;12.90;58.60
21502;DHT22;27639;48.674;9.242;2024-02-16T05:44:12;12.90;58.70
21502;DHT22;27639;48.674;9.242;2024-02-16T05:46:38;12.90;58.70
21502;DHT22;27639;48.674;9.242;2024-02-16T05:49:04;12.90;58.70
21502;DHT22;27639;48.674;9.242;2024-02-16T05:51:36;12.90;58.70
21502;DHT22;27639;48.674;9.242;2024-02-16T05:54:03;12.90;58.80
21502;DHT22;27639;48.674;9.242;2024-02-16T05:56:28;12.90;58.80
21502;DHT22;27639;48.674;9.242;2024-02-16T05:58:54;12.90;58.70
21502;DHT22;27639;48.674;9.242;2024-02-16T06:01:20;12.90;58.70
21502;DHT22;27639;48.674;9.242;2024-02-16T06:03:45;12.80;58.70
21502;DHT22;27639;48.674;9.242;2024-02-16T06:06:11;12.80;58.80
21502;DHT22;27639;48.674;9.242;2024-02-16T06:08:36;12.80;58.80
21502;DHT22;27639;48.674;9.242;2024-02-16T06:11:02;12.80;58.90
21502;DHT22;27639;48.674;9.242;2024-02-16T06:13:28;12.70;58.90
21502;DHT22;27639;48.674;9.242;2024-02-16T06:15:54;12.70;58.90
21502;DHT22;27639;48.674;9.242;2024-02-16T06:18:20;12.80;59.00
21502;DHT22;27639;48.674;9.242;2024-02-16T06:20:46;12.70;58.90
21502;DHT22;27639;48.674;9.242;2024-02-16T06:23:12;12.80;58.90
21502;DHT22;27639;48.674;9.242;2024-02-16T06:25:37;12.80;58.90
21502;DHT22;27639;48.674;9.242;2024-02-16T06:28:03;12.80;58.80
21502;DHT22;27639;48.674;9.242;2024-02-16T06:30:30;12.80;58.80
21502;DHT22;27639;48.674;9.242;2024-02-16T06:32:55;12.80;58.80
21502;DHT22;27639;48.674;9.242;2024-02-16T06:35:21;12.80;58.70
21502;DHT22;27639;48.674;9.242;2024-02-16T06:37:46;12.80;58.70
21502;DHT22;27639;48.674;9.242;2024-02-16T06:40:12;12.90;58.80
21502;DHT22;27639;48.674;9.242;2024-02-16T06:42:38;12.80;58.60
21502;DHT22;27639;48.674;9.242;2024-02-16T06:45:04;12.80;58.60
21502;DHT22;27639;48.674;9.242;2024-02-16T06:47:34;12.80;58.50
21502;DHT22;27639;48.674;9.242;2024-02-16T06:49:59;12.90;58.40
21502;DHT22;27639;48.674;9.242;2024-02-16T06:52:25;12.90;58.20
21502;DHT22;27639;48.674;9.242;2024-02-16T06:54:50;12.90;58.30
21502;DHT22;27639;48.674;9.242;2024-02-16T06:57:17;12.90;58.20
21502;DHT22;27639;48.674;9.242;2024-02-16T06:59:43;12.90;58.30
21502;DHT22;27639;48.674;9.242;2024-02-16T07:02:08;12.80;58.20
21502;DHT22;27639;48.674;9.242;2024-02-16T07:04:36;12.90;58.30
21502;DHT22;27639;48.674;9.242;2024-02-16T07:07:01;12.90;58.20
21502;DHT22;27639;48.674;9.242;2024-02-16T07:09:27;12.90;58.20
21502;DHT22;27639;48.674;9.242;2024-02-16T07:11:53;13.00;58.10
21502;DHT22;27639;48.674;9.242;2024-02-16T07:14:18;13.00;58.10
21502;DHT22;27639;48.674;9.242;2024-02-16T07:16:44;13.00;58.00
21502;DHT22;27639;48.674;9.242;2024-02-16T07:19:09;13.00;58.10
21502;DHT22;27639;48.674;9.242;2024-02-16T07:21:35;13.10;58.10
21502;DHT22;27639;48.674;9.242;2024-02-16T07:24:01;13.10;58.00
21502;DHT22;27639;48.674;9.242;2024-02-16T07:26:27;13.10;57.90
21502;DHT22;27639;48.674;9.242;2024-02-16T07:28:52;13.10;57.80
21502;DHT22;27639;48.674;9.242;2024-02-16T07:31:18;13.20;57.90
21502;DHT22;27639;48.674;9.242;2024-02-16T07:33:43;13.20;57.90
21502;DHT22;27639;48.674;9.242;2024-02-16T07:36:09;13.20;58.00
21502;DHT22;27639;48.674;9.242;2024-02-16T07:38:35;13.20;58.10
21502;DHT22;27639;48.674;9.242;2024-02-16T07:41:01;13.30;58.10
21502;DHT22;27639;48.674;9.242;2024-02-16T07:43:27;13.40;58.10
21502;DHT22;27639;48.674;9.242;2024-02-16T07:45:53;13.50;58.30
21502;DHT22;27639;48.674;9.242;2024-02-16T07:48:20;13.50;58.20
21502;DHT22;27639;48.674;9.242;2024-02-16T07:50:46;13.60;58.30
21502;DHT22;27639;48.674;9.242;2024-02-16T07:53:12;13.60;58.10
21502;DHT22;27639;48.674;9.242;2024-02-16T07:55:38;13.60;58.10
21502;DHT22;27639;48.674;9.242;2024-02-16T07:58:03;13.60;58.00
21502;DHT22;27639;48.674;9.242;2024-02-16T08:00:29;13.50;58.10
21502;DHT22;27639;48.674;9.242;2024-02-16T08:02:54;13.60;58.30
21502;DHT22;27639;48.674;9.242;2024-02-16T08:05:20;13.60;58.30
21502;DHT22;27639;48.674;9.242;2024-02-16T08:07:48;13.70;59.00
21502;DHT22;27639;48.674;9.242;2024-02-16T08:10:13;13.80;58.20
21502;DHT22;27639;48.674;9.242;2024-02-16T08:12:39;13.90;58.20
21502;DHT22;27639;48.674;9.242;2024-02-16T08:15:06;14.00;58.10
21502;DHT22;27639;48.674;9.242;2024-02-16T08:17:36;14.00;57.80
21502;DHT22;27639;48.674;9.242;2024-02-16T08:20:02;14.10;57.70
21502;DHT22;27639;48.674;9.242;2024-02-16T08:22:28;14.20;57.70
21502;DHT22;27639;48.674;9.242;2024-02-16T08:24:53;14.20;57.50
21502;DHT22;27639;48.674;9.242;2024-02-16T08:27:20;14.30;57.50
21502;DHT22;27639;48.674;9.242;2024-02-16T08:29:45;14.40;57.40
21502;DHT22;27639;48.674;9.242;2024-02-16T08:32:11;14.40;57.40
21502;DHT22;27639;48.674;9.242;2024-02-16T08:34:37;14.40;57.40
21502;DHT22;27639;48.674;9.242;2024-02-16T08:37:06;14.40;57.30
21502;DHT22;27639;48.674;9.242;2024-02-16T08:39:33;14.40;57.40
21502;DHT22;27639;48.674;9.242;2024-02-16T08:42:00;14.50;57.50
21502;DHT22;27639;48.674;9.242;2024-02-16T08:44:26;14.60;57.20
21502;DHT22;27639;48.674;9.242;2024-02-16T08:46:52;14.60;57.00
21502;DHT22;27639;48.674;9.242;2024-02-16T08:49:19;14.60;57.70
21502;DHT22;27639;48.674;9.242;2024-02-16T08:51:44;14.60;57.10
21502;DHT22;27639;48.674;9.242;2024-02-16T08:54:10;14.80;57.40
21502;DHT22;27639;48.674;9.242;2024-02-16T08:56:35;14.90;57.20
21502;DHT22;27639;48.674;9.242;2024-02-16T08:59:02;15.10;57.30
21502;DHT22;27639;48.674;9.242;2024-02-16T09:01:35;15.40;57.10
21502;DHT22;27639;48.674;9.242;2024-02-16T09:04:00;15.60;57.10
21502;DHT22;27639;48.674;9.242;2024-02-16T09:06:27;15.70;57.30
21502;DHT22;27639;48.674;9.242;2024-02-16T09:08:53;15.90;57.00
21502;DHT22;27639;48.674;9.242;2024-02-16T09:11:19;16.10;56.90
21502;DHT22;27639;48.674;9.242;2024-02-16T09:13:44;16.40;56.70
21502;DHT22;27639;48.674;9.242;2024-02-16T09:16:10;16.60;56.30
21502;DHT22;27639;48.674;9.242;2024-02-16T09:18:36;16.80;55.30
21502;DHT22;27639;48.674;9.242;2024-02-16T09:21:05;17.00;54.00
21502;DHT22;27639;48.674;9.242;2024-02-16T09:23:32;17.20;53.20
21502;DHT22;27639;48.674;9.242;2024-02-16T09:25:58;17.50;52.30
21502;DHT22;27639;48.674;9.242;2024-02-16T09:28:25;17.60;51.40
21502;DHT22;27639;48.674;9.242;2024-02-16T09:30:50;17.90;51.10
21502;DHT22;27639;48.674;9.242;2024-02-16T09:33:16;18.10;50.60
21502;DHT22;27639;48.674;9.242;2024-02-16T09:35:41;18.20;49.70
21502;DHT22;27639;48.674;9.242;2024-02-16T09:38:07;18.40;49.10
21502;DHT22;27639;48.674;9.242;2024-02-16T09:40:36;18.60;49.00
21502;DHT22;27639;48.674;9.242;2024-02-16T09:43:01;18.80;48.60
21502;DHT22;27639;48.674;9.242;2024-02-16T09:45:28;19.00;48.30
21502;DHT22;27639;48.674;9.242;2024-02-16T09:47:54;19.10;47.70
21502;DHT22;27639;48.674;9.242;2024-02-16T09:50:20;19.30;47.50
21502;DHT22;27639;48.674;9.242;2024-02-16T09:52:48;19.40;47.30
21502;DHT22;27639;48.674;9.242;2024-02-16T09:55:15;19.50;46.80
21502;DHT22;27639;48.674;9.242;2024-02-16T09:57:41;19.70;46.90
21502;DHT22;27639;48.674;9.242;2024-02-16T10:00:09;19.80;46.40
21502;DHT22;27639;48.674;9.242;2024-02-16T10:02:45;20.00;46.60
21502;DHT22;27639;48.674;9.242;2024-02-16T10:05:14;20.10;45.50
21502;DHT22;27639;48.674;9.242;2024-02-16T10:07:41;20.20;45.70
21502;DHT22;27639;48.674;9.242;2024-02-16T10:10:18;20.40;45.80
21502;DHT22;27639;48.674;9.242;2024-02-16T10:12:44;20.50;45.20
21502;DHT22;27639;48.674;9.242;2024-02-16T10:15:11;20.50;44.70
21502;DHT22;27639;48.674;9.242;2024-02-16T10:17:36;20.60;45.10
21502;DHT22;27639;48.674;9.242;2024-02-16T10:20:02;20.80;45.10
21502;DHT22;27639;48.674;9.242;2024-02-16T10:22:31;20.90;45.00
21502;DHT22;27639;48.674;9.242;2024-02-16T10:25:09;21.00;44.90
21502;DHT22;27639;48.674;9.242;2024-02-16T10:27:37;21.00;44.10
21502;DHT22;27639;48.674;9.242;2024-02-16T10:30:07;21.10;44.20
21502;DHT22;27639;48.674;9.242;2024-02-16T10:32:37;21.10;44.00
21502;DHT22;27639;48.674;9.242;2024-02-16T10:35:06;21.20;44.30
21502;DHT22;27639;48.674;9.242;2024-02-16T10:37:34;21.30;44.10
21502;DHT22;27639;48.674;9.242;2024-02-16T10:40:01;21.30;43.70
21502;DHT22;27639;48.674;9.242;2024-02-16T10:42:28;21.30;43.70
21502;DHT22;27639;48.674;9.242;2024-02-16T10:44:55;21.30;43.80
21502;DHT22;27639;48.674;9.242;2024-02-16T10:47:20;21.40;44.50
21502;DHT22;27639;48.674;9.242;2024-02-16T10:49:46;21.40;43.90
21502;DHT22;27639;48.674;9.242;2024-02-16T10:52:12;21.40;43.80
21502;DHT22;27639;48.674;9.242;2024-02-16T10:54:40;21.40;43.70
21502;DHT22;27639;48.674;9.242;2024-02-16T10:57:08;21.40;43.60
21502;DHT22;27639;48.674;9.242;2024-02-16T10:59:41;21.40;43.80
21502;DHT22;27639;48.674;9.242;2024-02-16T11:02:11;21.40;43.60
21502;DHT22;27639;48.674;9.242;2024-02-16T11:04:38;21.30;43.70
21502;DHT22;27639;48.674;9.242;2024-02-16T11:07:11;21.30;44.00
21502;DHT22;27639;48.674;9.242;2024-02-16T11:09:39;21.30;44.00
21502;DHT22;27639;48.674;9.242;2024-02-16T11:12:06;21.30;44.00
21502;DHT22;27639;48.674;9.242;2024-02-16T11:14:43;21.30;44.10
21502;DHT22;27639;48.674;9.242;2024-02-16T11:17:35;21.10;44.00
21502;DHT22;27639;48.674;9.242;2024-02-16T11:20:01;21.00;44.00
21502;DHT22;27639;48.674;9.242;2024-02-16T11:22:27;21.00;44.20
21502;DHT22;27639;48.674;9.242;2024-02-16T11:24:54;21.10;44.20
21502;DHT22;27639;48.674;9.242;2024-02-16T11:27:20;21.10;44.40
21502;DHT22;27639;48.674;9.242;2024-02-16T11:29:47;21.10;44.20
21502;DHT22;27639;48.674;9.242;2024-02-16T11:32:12;21.20;44.40
21502;DHT22;27639;48.674;9.242;2024-02-16T11:34:38;21.20;44.80
21502;DHT22;27639;48.674;9.242;2024-02-16T11:37:04;21.30;44.30
21502;DHT22;27639;48.674;9.242;2024-02-16T11:39:33;21.30;44.30
21502;DHT22;27639;48.674;9.242;2024-02-16T11:44:30;21.20;44.20
21502;DHT22;27639;48.674;9.242;2024-02-16T11:46:57;21.20;44.30
21502;DHT22;27639;48.674;9.242;2024-02-16T11:49:23;21.20;44.30
21502;DHT22;27639;48.674;9.242;2024-02-16T11:51:49;21.20;44.30
21502;DHT22;27639;48.674;9.242;2024-02-16T11:54:15;21.30;44.30
21502;DHT22;27639;48.674;9.242;2024-02-16T11:56:46;21.40;44.40
21502;DHT22;27639;48.674;9.242;2024-02-16T11:59:15;21.40;44.40
21502;DHT22;27639;48.674;9.242;2024-02-16T12:01:57;21.50;44.50
21502;DHT22;27639;48.674;9.242;2024-02-16T12:04:25;21.50;44.20
21502;DHT22;27639;48.674;9.242;2024-02-16T12:07:01;21.60;44.50
21502;DHT22;27639;48.674;9.242;2024-02-16T12:09:28;21.60;43.70
21502;DHT22;27639;48.674;9.242;2024-02-16T12:11:54;21.70;43.90
21502;DHT22;27639;48.674;9.242;2024-02-16T12:14:23;21.70;43.80
21502;DHT22;27639;48.674;9.242;2024-02-16T12:16:51;21.70;43.70
21502;DHT22;27639;48.674;9.242;2024-02-16T12:19:18;21.70;43.50
21502;DHT22;27639;48.674;9.242;2024-02-16T12:21:44;21.70;43.20
21502;DHT22;27639;48.674;9.242;2024-02-16T12:24:10;21.80;43.20
21502;DHT22;27639;48.674;9.242;2024-02-16T12:26:37;21.70;42.80
21502;DHT22;27639;48.674;9.242;2024-02-16T12:29:02;21.70;42.80
21502;DHT22;27639;48.674;9.242;2024-02-16T12:31:29;21.80;43.00
21502;DHT22;27639;48.674;9.242;2024-02-16T12:33:55;21.80;43.10
21502;DHT22;27639;48.674;9.242;2024-02-16T12:36:21;21.80;42.80
21502;DHT22;27639;48.674;9.242;2024-02-16T12:38:49;21.80;43.10
21502;DHT22;27639;48.674;9.242;2024-02-16T12:41:14;21.90;42.90
21502;DHT22;27639;48.674;9.242;2024-02-16T12:43:40;22.00;43.00
21502;DHT22;27639;48.674;9.242;2024-02-16T12:46:06;22.00;43.00
21502;DHT22;27639;48.674;9.242;2024-02-16T12:48:31;22.00;43.00
21502;DHT22;27639;48.674;9.242;2024-02-16T12:50:57;21.90;43.00
21502;DHT22;27639;48.674;9.242;2024-02-16T12:53:23;22.00;43.10
21502;DHT22;27639;48.674;9.242;2024-02-16T12:55:51;22.10;43.00
21502;DHT22;27639;48.674;9.242;2024-02-16T12:58:16;22.10;42.80
21502;DHT22;27639;48.674;9.242;2024-02-16T13:00:42;22.10;42.90
21502;DHT22;27639;48.674;9.242;2024-02-16T13:03:08;22.10;42.80
21502;DHT22;27639;48.674;9.242;2024-02-16T13:05:33;22.10;42.90
21502;DHT22;27639;48.674;9.242;2024-02-16T13:07:59;22.00;43.00
21502;DHT22;27639;48.674;9.242;2024-02-16T13:10:25;22.10;43.10
21502;DHT22;27639;48.674;9.242;2024-02-16T13:12:50;22.10;43.00
21502;DHT22;27639;48.674;9.242;2024-02-16T13:15:16;22.10;42.90
21502;DHT22;27639;48.674;9.242;2024-02-16T13:17:42;22.10;43.00
21502;DHT22;27639;48.674;9.242;2024-02-16T13:20:07;22.10;43.30
21502;DHT22;27639;48.674;9.242;2024-02-16T13:22:38;22.10;43.50
21502;DHT22;27639;48.674;9.242;2024-02-16T13:25:04;22.10;43.60
21502;DHT22;27639;48.674;9.242;2024-02-16T13:27:31;22.00;43.70
21502;DHT22;27639;48.674;9.242;2024-02-16T13:29:57;21.90;43.90
21502;DHT22;27639;48.674;9.242;2024-02-16T13:32:23;21.80;44.00
21502;DHT22;27639;48.674;9.242;2024-02-16T13:34:48;21.90;44.10
21502;DHT22;27639;48.674;9.242;2024-02-16T13:37:14;21.90;44.30
21502;DHT22;27639;48.674;9.242;2024-02-16T13:39:39;21.90;44.40
21502;DHT22;27639;48.674;9.242;2024-02-16T13:42:05;21.90;44.70
21502;DHT22;27639;48.674;9.242;2024-02-16T13:44:31;21.80;44.80
21502;DHT22;27639;48.674;9.242;2024-02-16T13:46:57;21.80;44.80
21502;DHT22;27639;48.674;9.242;2024-02-16T13:49:22;21.80;44.80
21502;DHT22;27639;48.674;9.242;2024-02-16T13:51:48;21.80;44.80
21502;DHT22;27639;48.674;9.242;2024-02-16T13:54:14;21.80;44.90
21502;DHT22;27639;48.674;9.242;2024-02-16T13:56:40;21.80;44.90
21502;DHT22;27639;48.674;9.242;2024-02-16T13:59:06;21.70;45.20
21502;DHT22;27639;48.674;9.242;2024-02-16T14:01:35;21.70;45.30
21502;DHT22;27639;48.674;9.242;2024-02-16T14:04:09;21.70;45.30
21502;DHT22;27639;48.674;9.242;2024-02-16T14:06:35;21.70;45.30
21502;DHT22;27639;48.674;9.242;2024-02-16T14:09:01;21.60;45.40
21502;DHT22;27639;48.674;9.242;2024-02-16T14:11:36;21.60;45.50
21502;DHT22;27639;48.674;9.242;2024-02-16T14:14:02;21.50;45.50
21502;DHT22;27639;48.674;9.242;2024-02-16T14:16:28;21.40;45.70
21502;DHT22;27639;48.674;9.242;2024-02-16T14:18:54;21.40;45.90
21502;DHT22;27639;48.674;9.242;2024-02-16T14:21:20;21.40;45.90
21502;DHT22;27639;48.674;9.242;2024-02-16T14:23:45;21.40;45.80
21502;DHT22;27639;48.674;9.242;2024-02-16T14:26:11;21.40;45.80
21502;DHT22;27639;48.674;9.242;2024-02-16T14:28:37;21.40;45.90
21502;DHT22;27639;48.674;9.242;2024-02-16T14:31:02;21.40;45.90
21502;DHT22;27639;48.674;9.242;2024-02-16T14:33:28;21.40;46.00
21502;DHT22;27639;48.674;9.242;2024-02-16T14:35:53;21.40;46.10
21502;DHT22;27639;48.674;9.242;2024-02-16T14:38:19;21.40;46.10
21502;DHT22;27639;48.674;9.242;2024-02-16T14:40:45;21.40;46.20
21502;DHT22;27639;48.674;9.242;2024-02-16T14:43:10;21.40;46.20
21502;DHT22;27639;48.674;9.242;2024-02-16T14:45:36;21.50;46.20
21502;DHT22;27639;48.674;9.242;2024-02-16T14:48:04;21.40;46.10
21502;DHT22;27639;48.674;9.242;2024-02-16T14:50:30;21.40;46.20
21502;DHT22;27639;48.674;9.242;2024-02-16T14:52:56;21.40;46.30
21502;DHT22;27639;48.674;9.242;2024-02-16T14:55:22;21.40;46.30
21502;DHT22;27639;48.674;9.242;2024-02-16T14:57:47;21.40;46.40
21502;DHT22;27639;48.674;9.242;2024-02-16T15:00:13;21.40;46.40
21502;DHT22;27639;48.674;9.242;2024-02-16T15:02:39;21.50;46.40
21502;DHT22;27639;48.674;9.242;2024-02-16T15:05:07;21.50;46.50
21502;DHT22;27639;48.674;9.242;2024-02-16T15:07:33;21.50;46.10
21502;DHT22;27639;48.674;9.242;2024-02-16T15:09:59;21.50;46.20
21502;DHT22;27639;48.674;9.242;2024-02-16T15:12:25;21.50;46.20
21502;DHT22;27639;48.674;9.242;2024-02-16T15:14:50;21.50;46.20
21502;DHT22;27639;48.674;9.242;2024-02-16T15:17:16;21.50;46.20
21502;DHT22;27639;48.674;9.242;2024-02-16T15:19:42;21.50;46.10
21502;DHT22;27639;48.674;9.242;2024-02-16T15:22:08;21.50;46.00
21502;DHT22;27639;48.674;9.242;2024-02-16T15:24:34;21.50;46.20
21502;DHT22;27639;48.674;9.242;2024-02-16T15:27:00;21.50;46.40